createdAt,value
2018-11-26T00:01:16.780Z,0.40
2018-11-26T00:03:44.485Z,0.20
2018-11-26T00:06:12.347Z,0.30
2018-11-26T00:08:39.816Z,0.20
2018-11-26T00:11:18.677Z,0.20
2018-11-26T00:13:46.182Z,0.30
2018-11-26T00:16:13.676Z,0.20
2018-11-26T00:18:41.290Z,0.30
2018-11-26T00:21:08.756Z,0.23
2018-11-26T00:23:36.251Z,0.10
2018-11-26T00:26:03.911Z,0.10
2018-11-26T00:28:31.344Z,0.20
2018-11-26T00:30:58.837Z,0.20
2018-11-26T00:33:26.368Z,0.40
2018-11-26T00:35:53.839Z,0.30
2018-11-26T00:38:21.292Z,0.20
2018-11-26T00:40:49.013Z,0.13
2018-11-26T00:43:16.491Z,0.20
2018-11-26T00:45:44.019Z,0.10
2018-11-26T00:48:11.586Z,0.20
2018-11-26T00:50:39.031Z,0.30
2018-11-26T00:53:06.994Z,0.20
2018-11-26T00:55:34.569Z,0.20
2018-11-26T00:58:02.031Z,0.10
2018-11-26T01:00:29.543Z,0.10
2018-11-26T01:02:57.289Z,0.27
2018-11-26T01:05:36.561Z,0.20
2018-11-26T01:08:04.450Z,0.10
2018-11-26T01:10:32.029Z,0.10
2018-11-26T01:12:59.555Z,0.20
2018-11-26T01:15:27.246Z,0.10
2018-11-26T01:17:54.699Z,0.23
2018-11-26T01:20:22.248Z,0.10
2018-11-26T01:22:50.026Z,0.10
2018-11-26T01:25:17.558Z,0.30
2018-11-26T01:27:45.041Z,0.20
2018-11-26T01:30:12.829Z,0.13
2018-11-26T01:32:40.421Z,0.10
2018-11-26T01:35:08.208Z,0.30
2018-11-26T01:37:35.777Z,0.20
2018-11-26T01:40:03.603Z,0.20
2018-11-26T01:42:31.083Z,0.23
2018-11-26T01:44:58.715Z,0.10
2018-11-26T01:47:26.239Z,0.30
2018-11-26T01:49:53.730Z,0.10
2018-11-26T01:52:21.463Z,0.10
2018-11-26T01:54:48.943Z,0.10
2018-11-26T01:57:16.421Z,0.20
2018-11-26T01:59:44.168Z,0.10
2018-11-26T02:02:11.697Z,0.13
2018-11-26T02:04:39.134Z,0.20
2018-11-26T02:07:06.989Z,0.20
2018-11-26T02:09:34.432Z,0.10
2018-11-26T02:12:01.920Z,0.00
2018-11-26T02:14:29.693Z,0.10
2018-11-26T02:16:57.216Z,0.10
2018-11-26T02:19:24.743Z,0.10
2018-11-26T02:21:52.385Z,0.27
2018-11-26T02:24:19.945Z,0.20
2018-11-26T02:26:47.394Z,0.00
2018-11-26T02:29:15.066Z,0.10
2018-11-26T02:31:42.634Z,0.10
2018-11-26T02:34:10.146Z,0.10
2018-11-26T02:36:37.935Z,0.17
2018-11-26T02:39:06.586Z,0.10
2018-11-26T02:41:34.120Z,0.10
2018-11-26T02:44:01.949Z,0.10
2018-11-26T02:46:29.458Z,0.20
2018-11-26T02:48:56.968Z,0.17
2018-11-26T02:51:24.583Z,0.10
2018-11-26T02:53:52.154Z,0.30
2018-11-26T02:56:19.681Z,0.10
2018-11-26T02:58:47.330Z,0.10
2018-11-26T03:01:14.845Z,0.20
2018-11-26T03:03:42.305Z,0.10
2018-11-26T03:06:09.880Z,0.20
2018-11-26T03:08:37.479Z,0.03
2018-11-26T03:11:05.377Z,0.10
2018-11-26T03:13:33.853Z,0.10
2018-11-26T03:16:01.307Z,0.10
2018-11-26T03:18:28.817Z,0.20
2018-11-26T03:20:56.554Z,0.10
2018-11-26T03:23:24.041Z,0.10
2018-11-26T03:25:51.553Z,0.20
2018-11-26T03:28:19.236Z,0.10
2018-11-26T03:30:46.742Z,0.40
2018-11-26T03:35:50.954Z,0.30
2018-11-26T03:38:27.498Z,0.20
2018-11-26T03:40:55.446Z,0.20
2018-11-26T03:43:22.935Z,0.30
2018-11-26T03:45:50.468Z,0.20
2018-11-26T03:48:18.136Z,0.17
2018-11-26T03:50:45.690Z,0.20
2018-11-26T03:53:13.191Z,0.10
2018-11-26T03:55:41.006Z,0.20
2018-11-26T03:58:08.522Z,0.10
2018-11-26T04:00:36.013Z,0.10
2018-11-26T04:03:03.843Z,0.20
2018-11-26T04:05:31.415Z,0.20
2018-11-26T04:07:58.843Z,0.20
2018-11-26T04:10:26.707Z,0.20
2018-11-26T04:12:54.254Z,0.20
2018-11-26T04:15:21.741Z,0.10
2018-11-26T04:17:49.504Z,0.20
2018-11-26T04:20:16.955Z,0.20
2018-11-26T04:22:44.441Z,0.20
2018-11-26T04:25:12.138Z,0.20
2018-11-26T04:27:39.647Z,0.30
2018-11-26T04:30:11.388Z,0.20
2018-11-26T04:32:39.496Z,0.30
2018-11-26T04:35:07.040Z,0.30
2018-11-26T04:37:34.550Z,0.27
2018-11-26T04:40:02.336Z,0.20
2018-11-26T04:42:29.849Z,0.30
2018-11-26T04:44:57.347Z,0.30
2018-11-26T04:47:25.057Z,0.20
2018-11-26T04:49:52.547Z,0.20
2018-11-26T04:52:20.022Z,0.23
2018-11-26T04:54:47.727Z,0.20
2018-11-26T04:57:15.290Z,0.30
2018-11-26T04:59:42.839Z,0.20
2018-11-26T05:02:10.633Z,0.30
2018-11-26T05:04:38.151Z,0.20
2018-11-26T05:07:05.906Z,0.23
2018-11-26T05:09:33.490Z,0.20
2018-11-26T05:12:00.955Z,0.10
2018-11-26T05:14:28.585Z,0.10
2018-11-26T05:16:56.183Z,0.10
2018-11-26T05:19:23.660Z,0.23
2018-11-26T05:21:51.194Z,0.20
2018-11-26T05:24:18.969Z,0.30
2018-11-26T05:26:46.446Z,0.43
2018-11-26T05:29:14.008Z,0.40
2018-11-26T05:31:41.795Z,0.30
2018-11-26T05:34:09.275Z,0.40
2018-11-26T05:36:36.780Z,0.40
2018-11-26T05:39:06.893Z,0.30
2018-11-26T05:41:34.358Z,0.60
2018-11-26T05:44:01.864Z,0.53
2018-11-26T05:46:29.501Z,0.43
2018-11-26T05:48:57.073Z,0.40
2018-11-26T05:51:24.571Z,0.50
2018-11-26T05:53:52.262Z,0.40
2018-11-26T05:56:19.745Z,0.60
2018-11-26T05:58:47.220Z,0.47
2018-11-26T06:01:14.857Z,0.77
2018-11-26T06:03:42.727Z,0.60
2018-11-26T06:06:10.255Z,0.60
2018-11-26T06:08:37.842Z,0.57
2018-11-26T06:11:05.468Z,0.70
2018-11-26T06:13:32.971Z,0.40
2018-11-26T06:16:00.595Z,0.50
2018-11-26T06:18:28.190Z,0.70
2018-11-26T06:20:55.700Z,0.63
2018-11-26T06:23:23.392Z,0.50
2018-11-26T06:25:50.983Z,0.87
2018-11-26T06:28:18.545Z,0.93
2018-11-26T06:30:46.251Z,0.87
2018-11-26T06:33:13.817Z,0.50
2018-11-26T06:35:41.267Z,0.60
2018-11-26T06:38:09.020Z,0.40
2018-11-26T06:40:36.482Z,0.60
2018-11-26T06:43:04.393Z,0.60
2018-11-26T06:45:32.142Z,0.43
2018-11-26T06:47:59.560Z,0.80
2018-11-26T06:50:27.040Z,0.50
2018-11-26T06:52:54.732Z,0.20
2018-11-26T06:55:22.286Z,0.30
2018-11-26T06:57:49.890Z,0.30
2018-11-26T07:00:18.695Z,0.20
2018-11-26T07:02:46.256Z,0.00
2018-11-26T07:05:17.646Z,0.10
2018-11-26T07:07:45.413Z,0.10
2018-11-26T07:10:13.381Z,0.00
2018-11-26T07:12:40.944Z,0.03
2018-11-26T07:15:11.904Z,0.00
2018-11-26T07:17:39.410Z,0.20
2018-11-26T07:20:10.219Z,0.20
2018-11-26T07:22:37.824Z,0.13
2018-11-26T07:25:14.720Z,0.13
2018-11-26T07:27:43.322Z,0.00
2018-11-26T07:30:14.844Z,0.20
2018-11-26T07:32:42.689Z,0.13
2018-11-26T07:35:10.748Z,0.00
2018-11-26T07:37:38.266Z,0.10
2018-11-26T07:40:11.002Z,0.50
2018-11-26T07:42:39.702Z,0.10
2018-11-26T07:45:09.802Z,0.17
2018-11-26T07:47:37.253Z,0.10
2018-11-26T07:50:07.941Z,0.10
2018-11-26T07:52:35.416Z,0.00
2018-11-26T07:55:03.022Z,0.07
2018-11-26T07:57:30.772Z,0.00
2018-11-26T07:59:58.344Z,0.10
2018-11-26T08:02:25.835Z,0.17
2018-11-26T08:04:53.611Z,0.10
2018-11-26T08:07:21.147Z,0.00
2018-11-26T08:09:48.733Z,0.10
2018-11-26T08:12:16.572Z,0.00
2018-11-26T08:14:44.337Z,0.20
2018-11-26T08:17:11.837Z,0.10
2018-11-26T08:19:39.539Z,0.17
2018-11-26T08:22:07.054Z,0.20
2018-11-26T08:24:34.590Z,0.10
2018-11-26T08:27:02.294Z,0.20
2018-11-26T08:29:29.745Z,0.13
2018-11-26T08:31:57.184Z,0.10
2018-11-26T08:34:24.928Z,0.10
2018-11-26T08:36:57.844Z,0.10
2018-11-26T08:39:31.261Z,0.20
2018-11-26T08:41:58.826Z,0.10
2018-11-26T08:44:32.286Z,0.13
2018-11-26T08:47:02.976Z,0.20
2018-11-26T08:49:30.455Z,0.10
2018-11-26T08:51:58.109Z,0.10
2018-11-26T08:54:25.639Z,0.10
2018-11-26T08:56:53.186Z,0.10
2018-11-26T08:59:20.974Z,0.10
2018-11-26T09:01:48.944Z,0.00
2018-11-26T09:04:20.261Z,0.00
2018-11-26T09:06:48.303Z,0.10
2018-11-26T09:09:15.831Z,0.10
2018-11-26T09:11:43.428Z,0.00
2018-11-26T09:14:11.041Z,0.10
2018-11-26T09:16:38.562Z,0.10
2018-11-26T09:19:06.253Z,0.10
2018-11-26T09:21:33.842Z,0.10
2018-11-26T09:24:01.399Z,0.10
2018-11-26T09:26:28.895Z,0.10
2018-11-26T09:28:56.682Z,0.03
2018-11-26T09:31:24.165Z,0.10
2018-11-26T09:33:51.660Z,0.10
2018-11-26T09:36:19.459Z,0.10
2018-11-26T09:38:46.967Z,0.10
2018-11-26T09:41:14.424Z,0.10
2018-11-26T09:43:42.272Z,0.20
2018-11-26T09:46:09.760Z,0.10
2018-11-26T09:48:37.305Z,0.13
2018-11-26T09:51:05.388Z,0.20
2018-11-26T09:53:32.872Z,0.20
2018-11-26T09:56:00.415Z,0.00
2018-11-26T09:58:28.224Z,0.10
2018-11-26T10:00:55.704Z,0.10
2018-11-26T10:03:23.282Z,0.00
2018-11-26T10:05:50.967Z,0.10
2018-11-26T10:08:18.504Z,0.00
2018-11-26T10:10:45.997Z,0.17
2018-11-26T10:13:13.853Z,0.20
2018-11-26T10:15:41.362Z,0.10
2018-11-26T10:18:08.908Z,0.10
2018-11-26T10:20:37.277Z,0.20
2018-11-26T10:23:05.556Z,0.20
2018-11-26T10:25:33.056Z,0.10
2018-11-26T10:28:00.781Z,0.10
2018-11-26T10:30:28.338Z,0.00
2018-11-26T10:32:55.896Z,0.10
2018-11-26T10:35:23.711Z,0.10
2018-11-26T10:37:51.208Z,0.13
2018-11-26T10:40:22.212Z,0.20
2018-11-26T10:42:49.799Z,0.20
2018-11-26T10:45:21.351Z,0.00
2018-11-26T10:47:48.879Z,0.10
2018-11-26T10:50:17.609Z,0.00
2018-11-26T10:52:48.345Z,0.00
2018-11-26T10:55:17.880Z,0.10
2018-11-26T10:57:52.223Z,0.20
2018-11-26T11:00:25.142Z,0.00
2018-11-26T11:02:53.083Z,0.10
2018-11-26T11:05:20.616Z,0.20
2018-11-26T11:07:48.279Z,0.10
2018-11-26T11:10:24.261Z,0.30
2018-11-26T11:12:51.991Z,0.23
2018-11-26T11:15:19.520Z,0.10
2018-11-26T11:17:47.102Z,0.13
2018-11-26T11:20:17.628Z,0.10
2018-11-26T11:22:45.153Z,0.10
2018-11-26T11:25:13.484Z,0.17
2018-11-26T11:27:41.238Z,0.10
2018-11-26T11:30:11.267Z,0.10
2018-11-26T11:32:38.809Z,0.13
2018-11-26T11:35:07.613Z,0.10
2018-11-26T11:37:35.303Z,0.20
2018-11-26T11:40:03.109Z,0.10
2018-11-26T11:42:30.816Z,0.30
2018-11-26T11:44:58.324Z,0.10
2018-11-26T11:47:25.843Z,0.10
2018-11-26T11:49:53.732Z,0.23
2018-11-26T11:52:21.262Z,0.10
2018-11-26T11:54:48.802Z,0.00
2018-11-26T11:57:16.737Z,0.27
2018-11-26T11:59:44.548Z,0.10
2018-11-26T12:02:15.994Z,0.10
2018-11-26T12:04:40.623Z,0.20
2018-11-26T12:07:08.097Z,0.87
2018-11-26T12:09:35.649Z,0.10
2018-11-26T12:12:03.246Z,0.10
2018-11-26T12:14:30.852Z,0.00
2018-11-26T12:16:58.447Z,0.00
2018-11-26T12:19:26.090Z,0.20
2018-11-26T12:21:53.579Z,0.20
2018-11-26T12:24:21.275Z,0.07
2018-11-26T12:26:48.981Z,0.10
2018-11-26T12:29:16.489Z,0.20
2018-11-26T12:31:43.995Z,0.10
2018-11-26T12:34:11.686Z,0.10
2018-11-26T12:36:39.306Z,0.10
2018-11-26T12:39:08.516Z,0.10
2018-11-26T12:41:36.489Z,0.10
2018-11-26T12:44:04.020Z,0.10
2018-11-26T12:46:31.499Z,0.20
2018-11-26T12:48:59.269Z,0.10
2018-11-26T12:51:26.751Z,0.10
2018-11-26T12:53:54.341Z,0.10
2018-11-26T12:56:22.165Z,0.10
2018-11-26T12:58:49.981Z,0.10
2018-11-26T13:01:17.518Z,0.10
2018-11-26T13:03:45.158Z,0.10
2018-11-26T13:06:12.653Z,0.13
2018-11-26T13:08:40.259Z,0.10
2018-11-26T13:11:07.910Z,0.10
2018-11-26T13:13:35.478Z,0.10
2018-11-26T13:16:03.035Z,0.20
2018-11-26T13:18:30.693Z,0.10
2018-11-26T13:20:58.164Z,0.13
2018-11-26T13:23:25.665Z,0.10
2018-11-26T13:25:53.352Z,0.10
2018-11-26T13:28:20.896Z,0.13
2018-11-26T13:30:49.432Z,0.27
2018-11-26T13:33:18.070Z,0.10
2018-11-26T13:35:46.665Z,0.20
2018-11-26T13:38:14.460Z,0.20
2018-11-26T13:40:42.253Z,0.20
2018-11-26T13:43:11.225Z,0.00
2018-11-26T13:45:40.545Z,0.20
2018-11-26T13:48:09.359Z,0.20
2018-11-26T13:50:39.522Z,0.17
2018-11-26T13:53:07.148Z,0.10
2018-11-26T13:55:35.016Z,0.10
2018-11-26T13:58:02.620Z,0.10
2018-11-26T14:00:30.178Z,0.10
2018-11-26T14:02:57.985Z,0.00
2018-11-26T14:05:25.614Z,0.13
2018-11-26T14:07:53.126Z,0.13
2018-11-26T14:10:22.980Z,0.10
2018-11-26T14:12:55.811Z,0.10
2018-11-26T14:15:23.383Z,0.00
2018-11-26T14:17:51.093Z,0.10
2018-11-26T14:20:18.601Z,0.10
2018-11-26T14:22:46.108Z,0.10
2018-11-26T14:25:14.723Z,0.20
2018-11-26T14:27:42.658Z,0.10
2018-11-26T14:30:20.102Z,0.10
2018-11-26T14:32:47.766Z,0.20
2018-11-26T14:35:15.356Z,0.10
2018-11-26T14:37:43.168Z,0.00
2018-11-26T14:40:21.544Z,0.10
2018-11-26T14:42:49.366Z,0.20
2018-11-26T14:45:16.916Z,0.10
2018-11-26T14:47:45.150Z,0.10
2018-11-26T14:50:13.518Z,0.10
2018-11-26T14:52:41.838Z,0.10
2018-11-26T14:55:11.226Z,0.10
2018-11-26T14:57:38.933Z,0.20
2018-11-26T15:00:11.148Z,0.10
2018-11-26T15:02:38.677Z,0.20
2018-11-26T15:05:06.559Z,0.20
2018-11-26T15:07:34.217Z,0.10
2018-11-26T15:10:01.777Z,0.20
2018-11-26T15:12:29.637Z,0.10
2018-11-26T15:14:57.081Z,0.20
2018-11-26T15:17:24.635Z,0.20
2018-11-26T15:19:52.409Z,0.10
2018-11-26T15:22:19.955Z,0.20
2018-11-26T15:24:47.465Z,0.10
2018-11-26T15:27:15.281Z,0.10
2018-11-26T15:29:42.829Z,0.20
2018-11-26T15:32:10.357Z,0.10
2018-11-26T15:34:38.091Z,0.27
2018-11-26T15:37:05.970Z,0.17
2018-11-26T15:39:33.573Z,0.40
2018-11-26T15:42:01.359Z,0.20
2018-11-26T15:44:28.825Z,0.20
2018-11-26T15:46:56.381Z,0.10
2018-11-26T15:49:24.140Z,0.20
2018-11-26T15:51:51.680Z,0.20
2018-11-26T15:54:19.206Z,0.00
2018-11-26T15:56:46.825Z,0.27
2018-11-26T15:59:14.325Z,0.20
2018-11-26T16:01:41.823Z,0.30
2018-11-26T16:04:09.594Z,0.30
2018-11-26T16:06:37.118Z,0.10
2018-11-26T16:09:08.211Z,0.20
2018-11-26T16:11:35.950Z,0.10
2018-11-26T16:14:03.503Z,0.27
2018-11-26T16:16:31.002Z,0.40
2018-11-26T16:18:58.808Z,0.67
2018-11-26T16:21:26.315Z,0.60
2018-11-26T16:23:53.838Z,0.30
2018-11-26T16:26:21.612Z,0.30
2018-11-26T16:28:49.130Z,0.37
2018-11-26T16:31:16.667Z,0.30
2018-11-26T16:33:44.463Z,0.20
2018-11-26T16:36:11.959Z,0.20
2018-11-26T16:38:39.433Z,0.30
2018-11-26T16:41:07.285Z,0.30
2018-11-26T16:43:34.838Z,0.20
2018-11-26T16:46:02.391Z,0.10
2018-11-26T16:48:30.245Z,0.43
2018-11-26T16:50:57.783Z,0.20
2018-11-26T16:53:25.309Z,0.40
2018-11-26T16:55:53.202Z,0.50
2018-11-26T16:58:20.846Z,0.30
2018-11-26T17:00:54.280Z,0.40
2018-11-26T17:03:21.741Z,0.50
2018-11-26T17:05:49.303Z,0.90
2018-11-26T17:08:17.094Z,0.90
2018-11-26T17:10:44.740Z,1.17
2018-11-26T17:13:13.731Z,1.00
2018-11-26T17:15:41.782Z,0.67
2018-11-26T17:18:09.356Z,0.83
2018-11-26T17:20:37.227Z,0.27
2018-11-26T17:23:05.699Z,0.23
2018-11-26T17:25:33.204Z,0.13
2018-11-26T17:28:00.748Z,0.37
2018-11-26T17:30:28.514Z,0.10
2018-11-26T17:32:57.934Z,0.47
2018-11-26T17:35:25.564Z,0.30
2018-11-26T17:37:53.260Z,0.30
2018-11-26T17:40:21.750Z,0.30
2018-11-26T17:42:49.368Z,0.20
2018-11-26T17:45:17.720Z,0.10
2018-11-26T17:47:46.296Z,0.20
2018-11-26T17:50:24.226Z,0.20
2018-11-26T17:52:51.803Z,0.20
2018-11-26T17:55:19.302Z,0.10
2018-11-26T17:57:46.970Z,0.10
2018-11-26T18:00:16.188Z,0.10
2018-11-26T18:02:44.359Z,0.10
2018-11-26T18:05:15.534Z,0.17
2018-11-26T18:07:43.330Z,0.07
2018-11-26T18:10:12.205Z,0.30
2018-11-26T18:12:39.938Z,0.20
2018-11-26T18:15:12.846Z,0.30
2018-11-26T18:17:40.444Z,0.27
2018-11-26T18:20:11.800Z,0.30
2018-11-26T18:22:39.574Z,0.20
2018-11-26T18:25:08.773Z,0.50
2018-11-26T18:27:36.518Z,0.30
2018-11-26T18:30:09.882Z,0.50
2018-11-26T18:32:37.380Z,0.60
2018-11-26T18:35:05.788Z,0.50
2018-11-26T18:37:33.310Z,0.47
2018-11-26T18:40:00.774Z,0.23
2018-11-26T18:42:28.510Z,0.27
2018-11-26T18:44:55.991Z,0.30
2018-11-26T18:47:23.447Z,0.10
2018-11-26T18:49:51.126Z,0.27
2018-11-26T18:52:18.608Z,0.20
2018-11-26T18:54:46.150Z,0.20
2018-11-26T18:57:13.821Z,0.20
2018-11-26T18:59:41.296Z,0.37
2018-11-26T19:02:08.787Z,0.17
2018-11-26T19:04:36.628Z,0.20
2018-11-26T19:07:04.107Z,0.20
2018-11-26T19:09:31.589Z,0.23
2018-11-26T19:12:03.989Z,0.27
2018-11-26T19:14:26.884Z,0.20
2018-11-26T19:16:54.531Z,0.10
2018-11-26T19:19:22.306Z,0.30
2018-11-26T19:21:49.832Z,0.20
2018-11-26T19:24:17.543Z,0.23
2018-11-26T19:26:45.253Z,0.27
2018-11-26T19:29:12.793Z,0.30
2018-11-26T19:31:40.293Z,0.30
2018-11-26T19:34:07.927Z,0.30
2018-11-26T19:36:35.469Z,0.47
2018-11-26T19:39:03.078Z,0.77
2018-11-26T19:41:30.669Z,0.40
2018-11-26T19:43:58.185Z,0.40
2018-11-26T19:46:25.713Z,0.40
2018-11-26T19:48:53.411Z,0.20
2018-11-26T19:51:20.942Z,0.20
2018-11-26T19:53:48.426Z,0.23
2018-11-26T19:56:16.035Z,0.20
2018-11-26T19:58:43.523Z,0.30
2018-11-26T20:01:11.013Z,0.07
2018-11-26T20:03:41.264Z,0.20
2018-11-26T20:06:10.145Z,0.20
2018-11-26T20:08:38.023Z,0.20
2018-11-26T20:11:06.417Z,0.43
2018-11-26T20:13:33.895Z,0.40
2018-11-26T20:16:01.422Z,0.20
2018-11-26T20:18:29.110Z,0.30
2018-11-26T20:20:56.615Z,0.30
2018-11-26T20:23:24.199Z,0.30
2018-11-26T20:25:52.326Z,0.10
2018-11-26T20:28:19.411Z,0.20
2018-11-26T20:30:46.872Z,0.10
2018-11-26T20:33:14.588Z,0.10
2018-11-26T20:35:42.124Z,0.17
2018-11-26T20:38:10.890Z,0.30
2018-11-26T20:40:38.670Z,0.20
2018-11-26T20:43:08.305Z,0.30
2018-11-26T20:45:36.398Z,0.30
2018-11-26T20:48:04.072Z,0.20
2018-11-26T20:50:31.574Z,0.30
2018-11-26T20:52:59.049Z,0.10
2018-11-26T20:55:26.789Z,0.23
2018-11-26T20:57:55.390Z,0.40
2018-11-26T21:00:24.177Z,0.50
2018-11-26T21:02:52.983Z,0.20
2018-11-26T21:05:20.548Z,0.23
2018-11-26T21:07:48.036Z,0.50
2018-11-26T21:10:16.102Z,0.50
2018-11-26T21:12:43.621Z,0.20
2018-11-26T21:15:13.875Z,0.40
2018-11-26T21:17:42.222Z,0.53
2018-11-26T21:20:22.225Z,0.47
2018-11-26T21:22:49.934Z,0.33
2018-11-26T21:25:17.691Z,0.40
2018-11-26T21:27:45.281Z,0.53
2018-11-26T21:30:14.022Z,0.40
2018-11-26T21:32:41.601Z,0.40
2018-11-26T21:35:11.318Z,0.53
2018-11-26T21:37:39.611Z,0.50
2018-11-26T21:40:08.592Z,0.30
2018-11-26T21:42:36.110Z,0.30
2018-11-26T21:45:04.391Z,0.53
2018-11-26T21:47:31.974Z,0.50
2018-11-26T21:49:59.509Z,0.53
2018-11-26T21:52:27.185Z,0.40
2018-11-26T21:54:54.727Z,0.40
2018-11-26T21:57:22.263Z,0.60
2018-11-26T21:59:49.819Z,0.30
2018-11-26T22:02:17.345Z,0.40
2018-11-26T22:04:44.807Z,0.17
2018-11-26T22:07:12.799Z,0.13
2018-11-26T22:09:40.369Z,0.10
2018-11-26T22:12:07.827Z,0.30
2018-11-26T22:14:35.499Z,0.30
2018-11-26T22:17:03.115Z,0.13
2018-11-26T22:19:30.616Z,0.20
2018-11-26T22:21:58.152Z,0.20
2018-11-26T22:24:25.646Z,0.20
2018-11-26T22:26:53.172Z,0.30
2018-11-26T22:29:21.156Z,0.10
2018-11-26T22:31:48.717Z,0.17
2018-11-26T22:34:16.214Z,0.50
2018-11-26T22:36:43.763Z,0.30
2018-11-26T22:39:11.274Z,0.40
2018-11-26T22:41:38.715Z,0.30
2018-11-26T22:44:06.403Z,0.30
2018-11-26T22:46:33.854Z,0.33
2018-11-26T22:49:01.419Z,0.27
2018-11-26T22:51:29.023Z,0.30
2018-11-26T22:53:56.492Z,0.40
2018-11-26T22:56:23.999Z,0.30
2018-11-26T22:58:51.646Z,0.30
2018-11-26T23:01:19.211Z,0.37
2018-11-26T23:03:46.731Z,0.30
2018-11-26T23:06:15.298Z,0.33
2018-11-26T23:08:42.789Z,0.20
2018-11-26T23:11:10.287Z,0.17
2018-11-26T23:13:38.052Z,0.20
2018-11-26T23:16:06.277Z,0.10
2018-11-26T23:18:33.752Z,0.20
2018-11-26T23:21:01.328Z,0.10
2018-11-26T23:23:28.847Z,0.10
2018-11-26T23:25:56.380Z,0.10
2018-11-26T23:28:24.091Z,0.10
2018-11-26T23:30:51.646Z,0.13
2018-11-26T23:33:19.181Z,0.10
2018-11-26T23:35:46.969Z,0.10
2018-11-26T23:38:14.474Z,0.10
2018-11-26T23:40:41.949Z,0.10
2018-11-26T23:43:09.699Z,0.10
2018-11-26T23:45:37.197Z,0.17
2018-11-26T23:48:05.649Z,0.00
2018-11-26T23:50:33.409Z,0.30
2018-11-26T23:53:00.886Z,0.10
2018-11-26T23:55:28.420Z,0.10
2018-11-26T23:57:56.072Z,0.20
